createdAt,value
2019-06-27T00:00:23.800Z,19.00
2019-06-27T00:02:25.507Z,19.00
2019-06-27T00:04:27.227Z,19.10
2019-06-27T00:06:28.938Z,19.00
2019-06-27T00:08:30.759Z,19.00
2019-06-27T00:10:34.401Z,18.90
2019-06-27T00:12:36.408Z,18.80
2019-06-27T00:14:38.135Z,18.90
2019-06-27T00:16:39.970Z,19.10
2019-06-27T00:18:41.696Z,18.90
2019-06-27T00:20:43.396Z,18.80
2019-06-27T00:22:45.294Z,18.80
2019-06-27T00:24:47.014Z,18.70
2019-06-27T00:26:57.202Z,18.70
2019-06-27T00:28:52.385Z,18.60
2019-06-27T00:30:54.155Z,18.50
2019-06-27T00:32:55.883Z,18.50
2019-06-27T00:34:57.618Z,18.50
2019-06-27T00:36:59.370Z,18.60
2019-06-27T00:39:01.158Z,18.40
2019-06-27T00:41:03.002Z,18.20
2019-06-27T00:43:04.826Z,18.20
2019-06-27T00:45:07.846Z,18.30
2019-06-27T00:47:09.650Z,18.30
2019-06-27T00:49:11.505Z,18.30
2019-06-27T00:51:13.218Z,18.10
2019-06-27T00:53:15.156Z,18.20
2019-06-27T00:55:17.000Z,18.40
2019-06-27T00:57:18.790Z,18.50
2019-06-27T00:59:20.531Z,18.50
2019-06-27T01:01:22.510Z,18.40
2019-06-27T01:03:24.307Z,18.20
2019-06-27T01:05:26.382Z,18.20
2019-06-27T01:07:28.219Z,18.10
2019-06-27T01:09:30.043Z,18.10
2019-06-27T01:11:31.867Z,18.20
2019-06-27T01:13:33.590Z,18.20
2019-06-27T01:15:35.399Z,18.20
2019-06-27T01:17:37.314Z,18.10
2019-06-27T01:19:39.062Z,18.20
2019-06-27T01:21:41.367Z,18.20
2019-06-27T01:23:45.129Z,18.30
2019-06-27T01:25:46.978Z,18.30
2019-06-27T01:27:48.777Z,18.30
2019-06-27T01:29:50.506Z,18.20
2019-06-27T01:31:52.438Z,18.40
2019-06-27T01:33:54.135Z,18.40
2019-06-27T01:35:55.854Z,18.50
2019-06-27T01:37:57.578Z,18.60
2019-06-27T01:39:59.290Z,18.70
2019-06-27T01:42:01.004Z,18.70
2019-06-27T01:44:02.980Z,18.70
2019-06-27T01:46:05.097Z,18.70
2019-06-27T01:48:07.183Z,18.50
2019-06-27T01:50:09.012Z,18.30
2019-06-27T01:52:10.822Z,18.20
2019-06-27T01:54:12.534Z,18.00
2019-06-27T01:56:14.268Z,17.90
2019-06-27T01:58:16.191Z,18.00
2019-06-27T02:00:19.337Z,18.00
2019-06-27T02:02:21.535Z,18.00
2019-06-27T02:04:23.375Z,17.90
2019-06-27T02:06:25.090Z,17.90
2019-06-27T02:08:26.838Z,17.80
2019-06-27T02:10:28.752Z,17.70
2019-06-27T02:12:30.463Z,17.70
2019-06-27T02:14:32.298Z,17.60
2019-06-27T02:16:34.105Z,17.60
2019-06-27T02:18:35.821Z,17.50
2019-06-27T02:20:37.646Z,17.40
2019-06-27T02:22:39.352Z,17.20
2019-06-27T02:24:41.134Z,17.30
2019-06-27T02:26:42.965Z,17.30
2019-06-27T02:28:44.679Z,17.40
2019-06-27T02:30:46.395Z,17.30
2019-06-27T02:32:48.111Z,17.30
2019-06-27T02:34:49.831Z,17.30
2019-06-27T02:36:51.689Z,17.30
2019-06-27T02:38:53.394Z,17.50
2019-06-27T02:40:58.424Z,17.50
2019-06-27T02:42:58.862Z,17.60
2019-06-27T02:45:00.572Z,17.60
2019-06-27T02:47:02.286Z,17.60
2019-06-27T02:49:04.123Z,17.60
2019-06-27T02:51:06.043Z,17.50
2019-06-27T02:53:07.781Z,17.50
2019-06-27T02:55:09.599Z,17.40
2019-06-27T02:57:11.415Z,17.30
2019-06-27T02:59:13.128Z,17.10
2019-06-27T03:01:14.951Z,17.10
2019-06-27T03:03:16.769Z,17.20
2019-06-27T03:05:18.837Z,17.10
2019-06-27T03:07:20.731Z,17.10
2019-06-27T03:09:22.490Z,17.20
2019-06-27T03:11:24.219Z,17.30
2019-06-27T03:13:26.033Z,17.30
2019-06-27T03:15:27.759Z,17.20
2019-06-27T03:17:29.932Z,17.20
2019-06-27T03:19:31.790Z,17.30
2019-06-27T03:21:33.593Z,17.30
2019-06-27T03:23:35.687Z,17.30
2019-06-27T03:25:37.721Z,17.40
2019-06-27T03:27:39.439Z,17.40
2019-06-27T03:29:41.198Z,17.20
2019-06-27T03:31:42.901Z,17.20
2019-06-27T03:33:44.587Z,17.30
2019-06-27T03:35:46.312Z,17.40
2019-06-27T03:37:48.164Z,17.40
2019-06-27T03:39:49.946Z,17.40
2019-06-27T03:41:51.680Z,17.40
2019-06-27T03:43:53.422Z,17.50
2019-06-27T03:45:55.212Z,17.50
2019-06-27T03:47:56.981Z,17.50
2019-06-27T03:49:58.779Z,17.60
2019-06-27T03:52:00.579Z,17.70
2019-06-27T03:54:02.716Z,17.70
2019-06-27T03:56:04.545Z,17.90
2019-06-27T03:58:06.375Z,17.90
2019-06-27T04:00:08.325Z,17.90
2019-06-27T04:02:10.111Z,17.80
2019-06-27T04:04:11.826Z,17.70
2019-06-27T04:06:13.555Z,17.70
2019-06-27T04:08:15.260Z,17.50
2019-06-27T04:10:17.898Z,17.40
2019-06-27T04:12:19.917Z,17.50
2019-06-27T04:14:21.632Z,17.60
2019-06-27T04:16:23.351Z,17.70
2019-06-27T04:18:25.167Z,17.70
2019-06-27T04:20:27.054Z,17.70
2019-06-27T04:22:28.904Z,17.80
2019-06-27T04:24:30.623Z,17.60
2019-06-27T04:26:32.389Z,17.60
2019-06-27T04:28:34.266Z,17.50
2019-06-27T04:30:36.098Z,17.50
2019-06-27T04:32:37.933Z,17.30
2019-06-27T04:34:39.732Z,17.40
2019-06-27T04:36:41.547Z,17.50
2019-06-27T04:38:43.695Z,17.60
2019-06-27T04:40:45.484Z,17.50
2019-06-27T04:42:47.205Z,17.50
2019-06-27T04:44:48.954Z,17.50
2019-06-27T04:46:50.667Z,17.50
2019-06-27T04:48:52.494Z,17.40
2019-06-27T04:50:54.287Z,17.50
2019-06-27T04:52:56.044Z,17.60
2019-06-27T04:55:02.743Z,17.70
2019-06-27T04:57:01.399Z,17.70
2019-06-27T04:59:03.243Z,17.80
2019-06-27T05:01:05.223Z,17.60
2019-06-27T05:03:07.108Z,17.60
2019-06-27T05:05:08.923Z,17.50
2019-06-27T05:07:10.639Z,17.50
2019-06-27T05:09:12.371Z,17.50
2019-06-27T05:11:14.102Z,17.50
2019-06-27T05:13:15.922Z,17.50
2019-06-27T05:15:17.654Z,17.50
2019-06-27T05:17:19.355Z,17.50
2019-06-27T05:19:22.577Z,17.60
2019-06-27T05:21:24.411Z,17.70
2019-06-27T05:23:26.214Z,17.80
2019-06-27T05:25:29.747Z,17.80
2019-06-27T05:27:31.646Z,17.80
2019-06-27T05:29:33.378Z,17.90
2019-06-27T05:31:35.074Z,18.00
2019-06-27T05:33:36.824Z,18.10
2019-06-27T05:35:39.467Z,18.10
2019-06-27T05:37:41.173Z,18.20
2019-06-27T05:39:42.905Z,18.10
2019-06-27T05:41:44.761Z,18.10
2019-06-27T05:43:46.655Z,18.10
2019-06-27T05:45:48.480Z,18.10
2019-06-27T05:47:50.255Z,18.00
2019-06-27T05:49:52.149Z,18.00
2019-06-27T05:51:53.889Z,18.10
2019-06-27T05:53:55.591Z,18.10
2019-06-27T05:55:57.441Z,18.20
2019-06-27T05:57:59.158Z,18.10
2019-06-27T06:00:00.886Z,18.00
2019-06-27T06:02:02.820Z,18.00
2019-06-27T06:04:04.519Z,18.00
2019-06-27T06:06:06.513Z,18.10
2019-06-27T06:08:08.243Z,18.10
2019-06-27T06:10:10.220Z,18.10
2019-06-27T06:12:11.941Z,18.00
2019-06-27T06:14:13.769Z,18.00
2019-06-27T06:16:15.448Z,18.00
2019-06-27T06:18:17.309Z,18.00
2019-06-27T06:20:19.305Z,18.10
2019-06-27T06:22:21.526Z,18.10
2019-06-27T06:24:23.224Z,18.30
2019-06-27T06:26:26.209Z,18.30
2019-06-27T06:28:27.923Z,18.50
2019-06-27T06:30:43.076Z,18.50
2019-06-27T06:32:33.477Z,18.50
2019-06-27T06:34:35.170Z,18.50
2019-06-27T06:36:36.909Z,18.40
2019-06-27T06:38:38.638Z,18.50
2019-06-27T06:40:40.494Z,18.40
2019-06-27T06:42:42.189Z,18.40
2019-06-27T06:44:44.265Z,18.60
2019-06-27T06:46:45.969Z,18.70
2019-06-27T06:48:47.699Z,18.70
2019-06-27T06:50:49.405Z,18.60
2019-06-27T06:52:51.535Z,18.60
2019-06-27T06:54:53.250Z,18.60
2019-06-27T06:56:55.000Z,18.60
2019-06-27T06:58:56.776Z,18.60
2019-06-27T07:01:02.075Z,18.80
2019-06-27T07:03:02.557Z,18.80
2019-06-27T07:05:04.782Z,18.90
2019-06-27T07:07:06.616Z,18.70
2019-06-27T07:09:08.353Z,18.60
2019-06-27T07:11:10.373Z,18.80
2019-06-27T07:13:12.136Z,18.80
2019-06-27T07:15:14.153Z,18.90
2019-06-27T07:17:15.953Z,18.70
2019-06-27T07:19:17.670Z,18.80
2019-06-27T07:21:19.409Z,18.70
2019-06-27T07:23:21.117Z,18.60
2019-06-27T07:25:23.019Z,18.60
2019-06-27T07:27:24.758Z,18.70
2019-06-27T07:29:26.466Z,18.90
2019-06-27T07:31:28.317Z,19.00
2019-06-27T07:33:30.295Z,19.10
2019-06-27T07:35:32.097Z,19.20
2019-06-27T07:37:33.806Z,19.30
2019-06-27T07:39:35.598Z,19.40
2019-06-27T07:41:37.435Z,19.50
2019-06-27T07:43:39.142Z,19.60
2019-06-27T07:45:40.846Z,19.40
2019-06-27T07:47:42.660Z,19.20
2019-06-27T07:49:44.373Z,19.30
2019-06-27T07:51:46.107Z,19.50
2019-06-27T07:53:47.862Z,19.40
2019-06-27T07:55:49.571Z,19.10
2019-06-27T07:57:51.335Z,19.10
2019-06-27T07:59:53.031Z,19.20
2019-06-27T08:01:54.725Z,19.30
2019-06-27T08:03:56.460Z,19.40
2019-06-27T08:05:58.134Z,19.60
2019-06-27T08:07:59.844Z,19.80
2019-06-27T08:10:01.719Z,19.90
2019-06-27T08:12:03.909Z,20.00
2019-06-27T08:14:05.606Z,20.00
2019-06-27T08:16:07.566Z,19.90
2019-06-27T08:18:09.280Z,19.80
2019-06-27T08:20:11.283Z,19.60
2019-06-27T08:22:12.991Z,19.50
2019-06-27T08:24:14.818Z,19.50
2019-06-27T08:26:16.517Z,19.50
2019-06-27T08:28:18.217Z,19.40
2019-06-27T08:30:20.149Z,19.40
2019-06-27T08:32:21.842Z,19.40
2019-06-27T08:34:23.537Z,19.40
2019-06-27T08:36:25.367Z,19.40
2019-06-27T08:38:27.062Z,19.40
2019-06-27T08:40:28.858Z,19.50
2019-06-27T08:42:30.592Z,19.60
2019-06-27T08:44:32.290Z,19.60
2019-06-27T08:46:34.336Z,19.60
2019-06-27T08:48:36.047Z,19.50
2019-06-27T08:50:37.738Z,19.50
2019-06-27T08:52:39.439Z,19.40
2019-06-27T08:54:41.161Z,19.40
2019-06-27T08:56:42.969Z,19.50
2019-06-27T08:58:44.667Z,19.60
2019-06-27T09:00:46.375Z,19.70
2019-06-27T09:02:48.090Z,19.80
2019-06-27T09:04:49.811Z,19.80
2019-06-27T09:06:51.697Z,19.70
2019-06-27T09:08:53.413Z,19.60
2019-06-27T09:10:55.237Z,19.60
2019-06-27T09:12:58.777Z,19.60
2019-06-27T09:15:00.581Z,19.60
2019-06-27T09:17:02.409Z,19.60
2019-06-27T09:19:04.152Z,19.60
2019-06-27T09:21:05.933Z,19.60
2019-06-27T09:23:10.253Z,19.50
2019-06-27T09:25:12.554Z,19.50
2019-06-27T09:27:14.278Z,19.50
2019-06-27T09:29:15.961Z,19.60
2019-06-27T09:31:17.903Z,19.80
2019-06-27T09:33:19.620Z,19.90
2019-06-27T09:35:21.319Z,19.90
2019-06-27T09:37:23.141Z,19.80
2019-06-27T09:39:26.969Z,19.80
2019-06-27T09:41:28.445Z,20.00
2019-06-27T09:43:30.146Z,20.00
2019-06-27T09:45:31.980Z,20.00
2019-06-27T09:47:33.774Z,19.70
2019-06-27T09:49:35.468Z,19.60
2019-06-27T09:51:37.193Z,19.50
2019-06-27T09:53:38.912Z,19.80
2019-06-27T09:55:40.858Z,19.90
2019-06-27T09:57:42.660Z,20.00
2019-06-27T09:59:44.483Z,19.60
2019-06-27T10:01:46.182Z,19.70
2019-06-27T10:03:48.156Z,19.80
2019-06-27T10:05:49.842Z,19.80
2019-06-27T10:07:51.555Z,19.60
2019-06-27T10:09:53.265Z,19.60
2019-06-27T10:11:54.969Z,19.70
2019-06-27T10:13:56.669Z,19.90
2019-06-27T10:15:58.500Z,20.20
2019-06-27T10:18:00.434Z,20.30
2019-06-27T10:20:02.822Z,20.50
2019-06-27T10:22:04.646Z,20.50
2019-06-27T10:24:06.354Z,20.50
2019-06-27T10:26:08.065Z,20.40
2019-06-27T10:28:09.781Z,20.40
2019-06-27T10:30:13.509Z,20.30
2019-06-27T10:32:15.202Z,20.30
2019-06-27T10:34:16.892Z,20.20
2019-06-27T10:36:18.637Z,20.20
2019-06-27T10:38:20.398Z,20.40
2019-06-27T10:40:22.289Z,20.50
2019-06-27T10:42:24.032Z,20.50
2019-06-27T10:44:25.721Z,20.70
2019-06-27T10:46:27.421Z,21.00
2019-06-27T10:48:29.143Z,21.20
2019-06-27T10:50:31.182Z,21.20
2019-06-27T10:52:32.961Z,21.20
2019-06-27T10:54:34.789Z,21.10
2019-06-27T10:56:39.785Z,20.90
2019-06-27T10:58:40.086Z,20.70
2019-06-27T11:00:41.805Z,20.70
2019-06-27T11:02:43.505Z,20.70
2019-06-27T11:04:45.213Z,20.80
2019-06-27T11:06:46.926Z,21.10
2019-06-27T11:08:48.613Z,21.10
2019-06-27T11:10:50.305Z,21.20
2019-06-27T11:12:52.125Z,21.20
2019-06-27T11:14:59.210Z,21.20
2019-06-27T11:16:57.421Z,21.00
2019-06-27T11:18:59.150Z,20.90
2019-06-27T11:21:01.067Z,20.70
2019-06-27T11:23:02.748Z,20.50
2019-06-27T11:25:04.708Z,20.60
2019-06-27T11:27:06.548Z,20.60
2019-06-27T11:29:08.668Z,20.50
2019-06-27T11:31:10.356Z,20.70
2019-06-27T11:33:12.181Z,21.00
2019-06-27T11:35:13.915Z,21.20
2019-06-27T11:37:15.853Z,21.30
2019-06-27T11:39:17.573Z,21.30
2019-06-27T11:41:19.261Z,21.20
2019-06-27T11:43:20.998Z,21.20
2019-06-27T11:45:22.899Z,21.10
2019-06-27T11:47:24.689Z,20.90
2019-06-27T11:49:26.381Z,20.60
2019-06-27T11:51:28.103Z,21.10
2019-06-27T11:53:29.826Z,21.80
2019-06-27T11:55:31.533Z,22.30
2019-06-27T11:57:33.303Z,22.30
2019-06-27T11:59:35.090Z,22.30
2019-06-27T12:01:36.886Z,22.20
2019-06-27T12:03:48.813Z,21.90
2019-06-27T12:05:42.311Z,21.60
2019-06-27T12:07:44.090Z,21.40
2019-06-27T12:09:45.805Z,21.40
2019-06-27T12:11:47.493Z,21.50
2019-06-27T12:13:49.223Z,21.70
2019-06-27T12:15:51.774Z,22.00
2019-06-27T12:17:53.534Z,22.00
2019-06-27T12:19:55.245Z,21.90
2019-06-27T12:21:56.961Z,21.90
2019-06-27T12:23:58.741Z,21.70
2019-06-27T12:26:00.490Z,21.30
2019-06-27T12:28:02.295Z,21.20
2019-06-27T12:30:04.438Z,21.10
2019-06-27T12:32:06.141Z,21.30
2019-06-27T12:34:07.961Z,21.10
2019-06-27T12:36:09.898Z,20.90
2019-06-27T12:38:11.599Z,21.00
2019-06-27T12:40:13.492Z,20.90
2019-06-27T12:42:28.339Z,20.90
2019-06-27T12:44:18.899Z,20.80
2019-06-27T12:46:20.621Z,20.70
2019-06-27T12:48:22.315Z,20.80
2019-06-27T12:50:24.221Z,20.70
2019-06-27T12:52:25.934Z,20.70
2019-06-27T12:54:27.655Z,20.60
2019-06-27T12:56:29.494Z,20.70
2019-06-27T12:58:31.246Z,20.80
2019-06-27T13:00:33.161Z,20.90
2019-06-27T13:02:34.957Z,20.70
2019-06-27T13:04:36.718Z,20.60
2019-06-27T13:06:38.453Z,20.60
2019-06-27T13:08:42.399Z,20.50
2019-06-27T13:10:44.565Z,20.50
2019-06-27T13:12:46.409Z,20.40
2019-06-27T13:14:48.097Z,20.40
2019-06-27T13:16:49.909Z,20.50
2019-06-27T13:18:51.642Z,20.40
2019-06-27T13:20:58.253Z,20.40
2019-06-27T13:22:57.037Z,20.40
2019-06-27T13:25:01.346Z,20.30
2019-06-27T13:27:03.149Z,20.30
2019-06-27T13:29:05.224Z,20.30
2019-06-27T13:31:06.927Z,20.20
2019-06-27T13:33:08.654Z,20.30
2019-06-27T13:35:10.465Z,20.30
2019-06-27T13:37:12.162Z,20.30
2019-06-27T13:39:13.856Z,20.20
2019-06-27T13:41:15.674Z,20.10
2019-06-27T13:43:17.478Z,20.00
2019-06-27T13:45:19.272Z,19.80
2019-06-27T13:47:21.850Z,19.80
2019-06-27T13:49:23.529Z,19.90
2019-06-27T13:51:25.225Z,20.00
2019-06-27T13:53:27.036Z,20.00
2019-06-27T13:55:28.745Z,20.10
2019-06-27T13:57:30.470Z,20.10
2019-06-27T13:59:32.177Z,20.20
2019-06-27T14:01:33.892Z,20.30
2019-06-27T14:03:48.900Z,20.30
2019-06-27T14:05:39.750Z,20.30
2019-06-27T14:07:41.435Z,20.20
2019-06-27T14:09:53.652Z,20.20
2019-06-27T14:11:46.946Z,20.30
2019-06-27T14:13:48.642Z,20.30
2019-06-27T14:15:50.400Z,20.20
2019-06-27T14:17:52.074Z,20.10
2019-06-27T14:19:53.822Z,20.20
2019-06-27T14:21:58.698Z,20.00
2019-06-27T14:23:59.114Z,20.00
2019-06-27T14:26:00.930Z,20.10
2019-06-27T14:28:02.643Z,20.00
2019-06-27T14:30:05.118Z,20.10
2019-06-27T14:32:06.883Z,20.10
2019-06-27T14:34:08.618Z,20.10
2019-06-27T14:36:10.366Z,20.00
2019-06-27T14:38:12.073Z,19.90
2019-06-27T14:40:14.557Z,19.90
2019-06-27T14:42:16.289Z,19.80
2019-06-27T14:44:17.981Z,19.70
2019-06-27T14:46:19.669Z,19.80
2019-06-27T14:48:21.445Z,19.70
2019-06-27T14:50:23.183Z,19.70
2019-06-27T14:52:24.901Z,19.70
2019-06-27T14:54:26.627Z,19.70
2019-06-27T14:56:28.522Z,19.70
2019-06-27T14:58:33.405Z,19.60
2019-06-27T15:00:34.329Z,19.60
2019-06-27T15:02:36.009Z,19.70
2019-06-27T15:04:37.722Z,19.80
2019-06-27T15:06:39.546Z,19.80
2019-06-27T15:08:41.270Z,19.70
2019-06-27T15:10:43.057Z,19.60
2019-06-27T15:12:56.472Z,19.60
2019-06-27T15:14:50.630Z,19.50
2019-06-27T15:16:52.279Z,19.50
2019-06-27T15:18:53.973Z,19.60
2019-06-27T15:20:55.787Z,19.80
2019-06-27T15:22:57.516Z,20.00
2019-06-27T15:24:59.215Z,19.90
2019-06-27T15:27:00.925Z,19.90
2019-06-27T15:29:02.908Z,19.90
2019-06-27T15:31:04.609Z,19.90
2019-06-27T15:33:06.293Z,20.00
2019-06-27T15:35:08.198Z,20.00
2019-06-27T15:37:09.901Z,20.20
2019-06-27T15:39:12.170Z,20.40
2019-06-27T15:41:14.093Z,20.40
2019-06-27T15:43:15.785Z,20.20
2019-06-27T15:45:17.573Z,20.10
2019-06-27T15:47:19.278Z,20.10
2019-06-27T15:49:20.984Z,20.00
2019-06-27T15:51:22.700Z,20.20
2019-06-27T15:53:24.389Z,20.20
2019-06-27T15:55:26.085Z,20.20
2019-06-27T15:57:27.801Z,20.20
2019-06-27T15:59:29.557Z,20.30
2019-06-27T16:01:31.265Z,20.30
2019-06-27T16:03:32.977Z,20.40
2019-06-27T16:05:34.974Z,20.20
2019-06-27T16:07:36.778Z,20.30
2019-06-27T16:09:38.494Z,20.20
2019-06-27T16:11:40.227Z,20.30
2019-06-27T16:13:41.925Z,20.40
2019-06-27T16:15:43.628Z,20.30
2019-06-27T16:17:45.448Z,20.40
2019-06-27T16:19:47.145Z,20.50
2019-06-27T16:21:48.841Z,20.20
2019-06-27T16:23:50.524Z,20.10
2019-06-27T16:25:52.244Z,20.10
2019-06-27T16:27:53.954Z,20.10
2019-06-27T16:29:55.641Z,20.00
2019-06-27T16:31:57.428Z,20.00
2019-06-27T16:33:59.126Z,20.00
2019-06-27T16:36:00.809Z,20.00
2019-06-27T16:38:02.626Z,20.00
2019-06-27T16:40:04.878Z,20.10
2019-06-27T16:42:06.577Z,19.90
2019-06-27T16:44:08.263Z,19.90
2019-06-27T16:46:09.986Z,19.90
2019-06-27T16:48:11.688Z,20.00
2019-06-27T16:50:13.701Z,19.90
2019-06-27T16:52:15.415Z,19.80
2019-06-27T16:54:17.095Z,19.80
2019-06-27T16:56:19.077Z,19.90
2019-06-27T16:58:21.428Z,19.80
2019-06-27T17:00:24.029Z,19.80
2019-06-27T17:02:25.832Z,19.70
2019-06-27T17:04:27.700Z,19.70
2019-06-27T17:06:41.291Z,19.70
2019-06-27T17:08:33.496Z,19.80
2019-06-27T17:10:35.303Z,19.80
2019-06-27T17:12:37.013Z,19.70
2019-06-27T17:14:38.698Z,19.70
2019-06-27T17:16:40.382Z,19.80
2019-06-27T17:18:42.083Z,19.70
2019-06-27T17:20:43.911Z,19.50
2019-06-27T17:22:45.600Z,19.50
2019-06-27T17:24:47.314Z,19.20
2019-06-27T17:26:48.995Z,19.20
2019-06-27T17:28:50.705Z,19.20
2019-06-27T17:30:52.496Z,19.20
2019-06-27T17:32:54.248Z,19.30
2019-06-27T17:34:56.240Z,19.30
2019-06-27T17:36:58.370Z,19.30
2019-06-27T17:39:00.133Z,19.30
2019-06-27T17:41:01.826Z,19.30
2019-06-27T17:43:03.820Z,19.30
2019-06-27T17:45:05.919Z,19.30
2019-06-27T17:47:07.725Z,19.40
2019-06-27T17:49:09.430Z,19.40
2019-06-27T17:51:11.138Z,19.30
2019-06-27T17:53:12.922Z,19.40
2019-06-27T17:55:14.860Z,19.30
2019-06-27T17:57:16.552Z,19.40
2019-06-27T17:59:18.241Z,19.50
2019-06-27T18:01:20.249Z,19.50
2019-06-27T18:03:21.935Z,19.60
2019-06-27T18:05:23.778Z,19.50
2019-06-27T18:07:25.452Z,19.20
2019-06-27T18:09:27.138Z,19.00
2019-06-27T18:11:28.845Z,18.80
2019-06-27T18:13:30.544Z,18.90
2019-06-27T18:15:32.230Z,18.80
2019-06-27T18:17:34.340Z,18.80
2019-06-27T18:19:36.144Z,18.70
2019-06-27T18:21:37.950Z,18.80
2019-06-27T18:23:39.645Z,18.90
2019-06-27T18:25:41.350Z,19.00
2019-06-27T18:27:43.036Z,19.20
2019-06-27T18:29:47.853Z,19.20
2019-06-27T18:31:48.345Z,19.10
2019-06-27T18:33:50.045Z,19.10
2019-06-27T18:35:51.777Z,18.90
2019-06-27T18:37:53.838Z,18.90
2019-06-27T18:39:55.627Z,18.80
2019-06-27T18:41:57.369Z,18.90
2019-06-27T18:43:59.148Z,18.90
2019-06-27T18:46:01.149Z,18.90
2019-06-27T18:48:03.025Z,18.70
2019-06-27T18:50:04.988Z,18.80
2019-06-27T18:52:06.673Z,18.70
2019-06-27T18:54:09.013Z,18.60
2019-06-27T18:56:10.790Z,18.40
2019-06-27T18:58:12.478Z,18.30
2019-06-27T19:00:14.574Z,18.40
2019-06-27T19:02:16.464Z,18.50
2019-06-27T19:04:18.414Z,18.50
2019-06-27T19:06:20.197Z,18.50
2019-06-27T19:08:21.961Z,18.40
2019-06-27T19:10:23.761Z,18.30
2019-06-27T19:12:25.448Z,18.20
2019-06-27T19:14:27.597Z,18.10
2019-06-27T19:16:29.356Z,18.10
2019-06-27T19:18:43.588Z,18.20
2019-06-27T19:20:50.253Z,18.20
2019-06-27T19:23:23.317Z,18.20
2019-06-27T19:25:29.229Z,18.20
2019-06-27T19:27:31.069Z,18.20
2019-06-27T19:29:32.823Z,18.10
2019-06-27T19:31:34.512Z,18.10
2019-06-27T19:33:36.805Z,18.20
2019-06-27T19:35:38.477Z,18.10
2019-06-27T19:37:40.161Z,18.20
2019-06-27T19:39:41.937Z,18.10
2019-06-27T19:41:43.637Z,18.20
2019-06-27T19:43:45.333Z,18.20
2019-06-27T19:45:47.033Z,18.30
2019-06-27T19:47:48.809Z,18.40
2019-06-27T19:49:50.510Z,18.50
2019-06-27T19:51:52.213Z,18.50
2019-06-27T19:53:53.953Z,18.50
2019-06-27T19:55:55.857Z,18.30
2019-06-27T19:57:57.580Z,18.30
2019-06-27T19:59:59.260Z,18.30
2019-06-27T20:02:00.969Z,18.40
2019-06-27T20:04:02.880Z,18.50
2019-06-27T20:06:04.656Z,18.50
2019-06-27T20:10:43.081Z,18.60
2019-06-27T20:12:44.865Z,18.50
2019-06-27T20:14:46.562Z,18.40
2019-06-27T20:16:48.265Z,18.30
2019-06-27T20:18:49.950Z,18.20
2019-06-27T20:20:51.625Z,18.00
2019-06-27T20:22:53.428Z,18.10
2019-06-27T20:24:55.129Z,18.10
2019-06-27T20:26:56.823Z,18.20
2019-06-27T20:28:58.598Z,18.10
2019-06-27T20:31:00.369Z,18.00
2019-06-27T20:33:02.066Z,18.10
2019-06-27T20:35:04.297Z,18.10
2019-06-27T20:37:06.023Z,18.20
2019-06-27T20:39:07.972Z,18.20
2019-06-27T20:41:09.830Z,18.10
2019-06-27T20:43:11.576Z,18.00
2019-06-27T20:45:13.585Z,18.00
2019-06-27T20:47:19.083Z,17.80
2019-06-27T20:49:21.048Z,17.70
2019-06-27T20:51:23.330Z,17.60
2019-06-27T20:53:25.155Z,17.70
2019-06-27T20:55:26.883Z,17.70
2019-06-27T20:57:28.697Z,17.70
2019-06-27T20:59:30.439Z,17.60
2019-06-27T21:01:32.163Z,17.60
2019-06-27T21:03:33.874Z,17.50
2019-06-27T21:05:35.642Z,17.40
2019-06-27T21:07:37.454Z,17.40
2019-06-27T21:09:39.210Z,17.30
2019-06-27T21:11:40.974Z,17.40
2019-06-27T21:13:42.705Z,17.30
2019-06-27T21:15:50.265Z,17.30
2019-06-27T21:17:50.613Z,17.40
2019-06-27T21:19:52.352Z,17.40
2019-06-27T21:21:54.107Z,17.40
2019-06-27T21:23:55.835Z,17.40
2019-06-27T21:25:57.546Z,17.40
2019-06-27T21:27:59.264Z,17.40
2019-06-27T21:30:01.017Z,17.40
2019-06-27T21:32:03.006Z,17.40
2019-06-27T21:34:04.925Z,17.40
2019-06-27T21:36:29.341Z,17.30
2019-06-27T21:38:31.154Z,17.30
2019-06-27T21:40:32.990Z,17.30
2019-06-27T21:42:34.681Z,17.30
2019-06-27T21:44:36.363Z,17.30
2019-06-27T21:46:38.045Z,17.40
2019-06-27T21:48:39.768Z,17.40
2019-06-27T21:50:41.448Z,17.40
2019-06-27T21:52:43.141Z,17.50
2019-06-27T21:54:44.852Z,17.50
2019-06-27T21:56:46.575Z,17.40
2019-06-27T21:58:48.361Z,17.20
2019-06-27T22:00:51.165Z,17.30
2019-06-27T22:02:52.864Z,17.30
2019-06-27T22:04:54.655Z,17.40
2019-06-27T22:06:56.362Z,17.50
2019-06-27T22:08:58.174Z,17.40
2019-06-27T22:10:59.882Z,17.30
2019-06-27T22:13:01.697Z,17.30
2019-06-27T22:15:04.283Z,17.20
2019-06-27T22:17:05.994Z,17.30
2019-06-27T22:19:07.900Z,17.30
2019-06-27T22:21:09.676Z,17.30
2019-06-27T22:23:11.486Z,17.30
2019-06-27T22:25:13.585Z,17.40
2019-06-27T22:27:15.306Z,17.30
2019-06-27T22:29:17.137Z,17.20
2019-06-27T22:31:18.938Z,17.30
2019-06-27T22:33:20.624Z,17.30
2019-06-27T22:35:22.321Z,17.30
2019-06-27T22:37:23.898Z,17.30
2019-06-27T22:39:44.017Z,17.40
2019-06-27T22:42:04.066Z,17.40
2019-06-27T22:44:24.102Z,17.20
2019-06-27T22:46:44.128Z,17.10
2019-06-27T22:48:46.545Z,17.10
2019-06-27T22:51:06.133Z,17.10
2019-06-27T22:53:12.006Z,17.10
2019-06-27T22:55:16.513Z,17.10
2019-06-27T22:57:18.225Z,17.20
2019-06-27T22:59:19.956Z,17.20
2019-06-27T23:01:21.673Z,17.20
2019-06-27T23:03:23.516Z,17.20
2019-06-27T23:05:25.533Z,17.20
2019-06-27T23:07:27.237Z,17.10
2019-06-27T23:09:29.057Z,17.10
2019-06-27T23:11:30.791Z,17.10
2019-06-27T23:13:32.502Z,17.00
2019-06-27T23:15:34.566Z,17.00
2019-06-27T23:17:36.261Z,17.00
2019-06-27T23:19:37.993Z,17.00
2019-06-27T23:21:39.684Z,17.10
2019-06-27T23:23:41.409Z,17.10
2019-06-27T23:25:43.120Z,17.00
2019-06-27T23:27:45.193Z,17.10
2019-06-27T23:29:46.927Z,17.10
2019-06-27T23:31:48.674Z,17.00
2019-06-27T23:33:50.405Z,17.00
2019-06-27T23:35:52.115Z,17.00
2019-06-27T23:37:53.837Z,17.00
2019-06-27T23:39:55.529Z,17.00
2019-06-27T23:41:57.253Z,17.00
2019-06-27T23:43:59.001Z,17.00
2019-06-27T23:46:00.771Z,17.10
2019-06-27T23:48:02.481Z,17.10
2019-06-27T23:50:04.320Z,17.00
2019-06-27T23:52:06.186Z,16.90
2019-06-27T23:54:08.102Z,16.90
2019-06-27T23:56:09.803Z,16.90
2019-06-27T23:58:11.573Z,16.90
